Time;durP1;ratioP1;P1;durP2;ratioP2;P2;SDS_P1;SDS_P2;PMS_P1;PMS_P2;Temp;Humidity;BMP_temperature;BMP_pressure;BME280_temperature;BME280_humidity;BME280_pressure;Samples;Min_cycle;Max_cycle;Signal;HPM_P1;HPM_P2
2022/07/28 00:00:06;;;;;;;4.45;2.08;;;13.40;99.90;;;;;;4834619;29;20124;-77
2022/07/28 00:02:32;;;;;;;4.78;1.92;;;13.40;99.90;;;;;;4849168;29;20049;-77
2022/07/28 00:04:58;;;;;;;4.65;1.73;;;13.40;99.90;;;;;;4857525;29;20038;-76
2022/07/28 00:07:23;;;;;;;3.83;2.28;;;13.40;99.90;;;;;;4840250;29;20488;-77
2022/07/28 00:09:49;;;;;;;3.28;1.98;;;13.40;99.90;;;;;;4835129;29;20045;-76
2022/07/28 00:12:15;;;;;;;4.60;2.00;;;13.40;99.90;;;;;;4857193;29;20460;-76
2022/07/28 00:14:41;;;;;;;5.88;1.95;;;13.40;99.90;;;;;;4857395;29;20077;-76
2022/07/28 00:17:06;;;;;;;2.88;2.00;;;13.40;99.90;;;;;;4844159;29;20049;-76
2022/07/28 00:19:32;;;;;;;8.35;2.42;;;13.40;99.90;;;;;;4843441;29;20107;-76
2022/07/28 00:21:58;;;;;;;4.43;2.00;;;13.40;99.90;;;;;;4840953;29;20398;-77
2022/07/28 00:24:24;;;;;;;3.58;1.98;;;13.30;99.90;;;;;;4843072;29;20440;-77
2022/07/28 00:26:50;;;;;;;8.68;2.30;;;13.30;99.90;;;;;;4843661;29;20041;-76
2022/07/28 00:29:16;;;;;;;4.85;2.22;;;13.30;99.90;;;;;;4841392;29;20045;-76
2022/07/28 00:31:42;;;;;;;5.45;1.90;;;13.30;99.90;;;;;;4859374;29;20459;-77
2022/07/28 00:34:08;;;;;;;4.60;2.03;;;13.20;99.90;;;;;;4850748;29;20044;-76
2022/07/28 00:36:33;;;;;;;4.82;2.30;;;13.20;99.90;;;;;;4831537;29;20546;-77
2022/07/28 00:38:59;;;;;;;6.65;2.17;;;13.20;99.90;;;;;;4847039;29;20056;-77
2022/07/28 00:41:25;;;;;;;6.50;1.73;;;13.20;99.90;;;;;;4860044;29;20052;-76
2022/07/28 00:43:51;;;;;;;4.15;1.85;;;13.20;99.90;;;;;;4829703;29;20094;-77
2022/07/28 00:46:20;;;;;;;3.35;1.80;;;13.20;99.90;;;;;;4845350;29;20049;-76
2022/07/28 00:48:49;;;;;;;6.43;2.05;;;13.20;99.90;;;;;;4856381;29;20045;-77
2022/07/28 00:51:15;;;;;;;5.07;1.70;;;13.20;99.90;;;;;;4875543;29;20052;-76
2022/07/28 00:53:42;;;;;;;4.63;1.90;;;13.10;99.90;;;;;;4839669;29;20049;-77
2022/07/28 00:56:07;;;;;;;3.78;1.80;;;13.10;99.90;;;;;;4854821;29;20512;-77
2022/07/28 00:58:37;;;;;;;3.08;1.67;;;13.10;99.90;;;;;;4845182;29;20038;-77
2022/07/28 01:01:08;;;;;;;3.00;1.73;;;13.10;99.90;;;;;;4858117;29;20482;-76
2022/07/28 01:03:38;;;;;;;2.60;1.58;;;13.10;99.90;;;;;;4857605;29;20037;-77
2022/07/28 01:06:31;;;;;;;2.55;1.60;;;13.10;99.90;;;;;;4846190;29;20078;-77
2022/07/28 01:09:34;;;;;;;5.13;2.20;;;13.00;99.90;;;;;;4858391;29;20081;-76
2022/07/28 01:12:06;;;;;;;3.10;2.17;;;12.90;99.90;;;;;;4855484;29;20386;-77
2022/07/28 01:15:07;;;;;;;4.13;1.98;;;12.80;99.90;;;;;;4841581;29;20093;-76
2022/07/28 01:17:50;;;;;;;4.72;2.72;;;12.80;99.90;;;;;;4861227;29;20054;-76
2022/07/28 01:20:40;;;;;;;5.25;3.72;;;12.70;99.90;;;;;;4858824;29;20444;-76
2022/07/28 01:23:31;;;;;;;6.72;3.55;;;12.70;99.90;;;;;;4854250;29;20042;-76
2022/07/28 01:26:12;;;;;;;6.18;4.38;;;12.70;99.90;;;;;;4844890;29;20046;-76
2022/07/28 01:29:09;;;;;;;6.80;4.50;;;12.60;99.90;;;;;;4848195;29;20398;-76
2022/07/28 01:32:00;;;;;;;6.13;4.18;;;12.60;99.90;;;;;;4859270;29;20053;-77
2022/07/28 01:34:44;;;;;;;8.45;4.85;;;12.60;99.90;;;;;;4859671;29;20178;-76
2022/07/28 01:37:12;;;;;;;8.27;4.30;;;12.50;99.90;;;;;;4855950;29;20061;-77
2022/07/28 01:39:41;;;;;;;6.35;4.40;;;12.50;99.90;;;;;;4855507;29;20046;-76
2022/07/28 01:42:08;;;;;;;11.95;4.85;;;12.50;99.90;;;;;;4835211;29;20038;-77
2022/07/28 01:44:39;;;;;;;8.05;4.43;;;12.50;99.90;;;;;;4859354;29;20542;-77
2022/07/28 01:47:06;;;;;;;6.28;4.00;;;12.50;99.90;;;;;;4857967;29;20068;-76
2022/07/28 01:49:34;;;;;;;5.88;3.38;;;12.50;99.90;;;;;;4842232;29;20073;-76
2022/07/28 01:52:04;;;;;;;9.50;3.72;;;12.50;99.90;;;;;;4859551;29;20482;-76
2022/07/28 01:54:31;;;;;;;5.80;3.60;;;12.50;99.90;;;;;;4846293;29;20045;-77
2022/07/28 01:56:59;;;;;;;4.78;3.22;;;12.60;99.90;;;;;;4846088;29;20063;-78
2022/07/28 01:59:27;;;;;;;6.47;2.95;;;12.50;99.90;;;;;;4861045;29;20498;-76
2022/07/28 02:01:53;;;;;;;6.38;2.83;;;12.50;99.90;;;;;;4850306;29;20050;-77
2022/07/28 02:04:22;;;;;;;4.97;3.25;;;12.50;99.90;;;;;;4825505;29;20123;-76
2022/07/28 02:06:50;;;;;;;6.00;2.65;;;12.50;99.90;;;;;;4854045;29;20117;-77
2022/07/28 02:09:17;;;;;;;3.97;2.50;;;12.50;99.90;;;;;;4843243;29;20034;-77
2022/07/28 02:11:45;;;;;;;5.72;3.20;;;12.50;99.90;;;;;;4844937;29;20105;-77
2022/07/28 02:14:17;;;;;;;3.97;2.50;;;12.50;99.90;;;;;;4855057;29;20505;-77
2022/07/28 02:16:51;;;;;;;4.55;3.25;;;12.50;99.90;;;;;;4853677;29;20049;-76
2022/07/28 02:19:18;;;;;;;4.63;2.60;;;12.50;99.90;;;;;;4857763;29;20037;-77
2022/07/28 02:21:48;;;;;;;7.75;2.78;;;12.40;99.90;;;;;;4852729;29;20056;-76
2022/07/28 02:24:20;;;;;;;4.40;2.47;;;12.40;99.90;;;;;;4852096;29;20042;-77
2022/07/28 02:26:56;;;;;;;6.10;2.90;;;12.30;99.90;;;;;;4859674;29;20053;-78
2022/07/28 02:29:23;;;;;;;5.53;3.00;;;12.20;99.90;;;;;;4855108;29;20493;-78
2022/07/28 02:32:11;;;;;;;6.80;3.00;;;12.10;99.90;;;;;;4859487;29;20045;-77
2022/07/28 02:34:38;;;;;;;4.97;2.40;;;12.10;99.90;;;;;;4874208;29;20046;-76
2022/07/28 02:37:08;;;;;;;3.00;2.60;;;12.00;99.90;;;;;;4842756;29;20122;-76
2022/07/28 02:39:53;;;;;;;7.05;2.78;;;12.00;99.90;;;;;;4842153;29;20045;-76
2022/07/28 02:42:25;;;;;;;4.90;3.05;;;12.00;99.90;;;;;;4845325;29;20102;-76
2022/07/28 02:44:59;;;;;;;3.88;2.38;;;12.00;99.90;;;;;;4853344;29;20045;-76
2022/07/28 02:47:30;;;;;;;5.88;2.60;;;12.00;99.90;;;;;;4838062;29;20041;-77
2022/07/28 02:50:00;;;;;;;5.00;2.80;;;12.00;99.90;;;;;;4850918;29;20041;-76
2022/07/28 02:52:27;;;;;;;5.93;3.05;;;12.00;99.90;;;;;;4847988;29;20075;-77
2022/07/28 02:54:55;;;;;;;4.47;2.70;;;12.00;99.90;;;;;;4843654;29;20053;-77
2022/07/28 02:57:23;;;;;;;4.10;2.30;;;11.90;99.90;;;;;;4841546;29;20050;-76
2022/07/28 02:59:50;;;;;;;4.38;2.58;;;11.90;99.90;;;;;;4852748;29;20124;-77
2022/07/28 03:02:20;;;;;;;5.30;3.08;;;11.90;99.90;;;;;;4828414;29;20041;-77
2022/07/28 03:04:57;;;;;;;5.00;2.80;;;11.90;99.90;;;;;;4854993;29;20122;-77
2022/07/28 03:07:34;;;;;;;7.10;2.58;;;12.00;99.90;;;;;;4839698;29;20052;-77
2022/07/28 03:10:01;;;;;;;5.10;3.00;;;11.80;99.90;;;;;;4857511;29;20562;-77
2022/07/28 03:12:27;;;;;;;4.30;2.60;;;11.80;99.90;;;;;;4842557;29;20048;-77
2022/07/28 03:14:53;;;;;;;6.22;2.53;;;11.80;99.90;;;;;;4828334;29;20037;-77
2022/07/28 03:17:18;;;;;;;3.65;2.42;;;11.70;99.90;;;;;;4856465;29;20038;-77
2022/07/28 03:19:45;;;;;;;4.82;2.80;;;11.70;99.90;;;;;;4859239;29;20034;-77
2022/07/28 03:22:11;;;;;;;5.32;2.58;;;11.70;99.90;;;;;;4859828;29;20069;-78
2022/07/28 03:24:43;;;;;;;4.47;2.65;;;11.60;99.90;;;;;;4856505;29;20069;-78
2022/07/28 03:27:33;;;;;;;7.85;2.83;;;11.50;99.90;;;;;;4838849;29;20060;-76
2022/07/28 03:30:05;;;;;;;5.57;2.63;;;11.60;99.90;;;;;;4856817;29;20037;-77
2022/07/28 03:32:34;;;;;;;4.38;2.60;;;11.50;99.90;;;;;;4844357;29;20056;-76
2022/07/28 03:35:00;;;;;;;3.80;2.42;;;11.60;99.90;;;;;;4856131;29;20129;-76
2022/07/28 03:37:43;;;;;;;4.95;2.97;;;11.60;99.90;;;;;;4843969;29;20065;-77
2022/07/28 03:40:10;;;;;;;2.58;2.20;;;11.60;99.90;;;;;;4859280;29;20370;-77
2022/07/28 03:42:37;;;;;;;4.45;2.83;;;11.50;99.90;;;;;;4854905;29;20103;-77
2022/07/28 03:45:04;;;;;;;4.75;2.72;;;11.60;99.90;;;;;;4855129;29;20069;-77
2022/07/28 03:47:30;;;;;;;5.07;3.42;;;11.50;99.90;;;;;;4843032;29;20076;-77
2022/07/28 03:49:55;;;;;;;5.75;3.85;;;11.50;99.90;;;;;;4807312;29;20083;-77
2022/07/28 03:52:21;;;;;;;6.40;3.63;;;11.50;99.90;;;;;;4842322;29;20048;-77
2022/07/28 03:54:47;;;;;;;5.88;3.25;;;11.40;99.90;;;;;;4807425;29;20108;-76
2022/07/28 03:57:12;;;;;;;4.15;3.25;;;11.40;99.90;;;;;;4835988;29;20061;-76
2022/07/28 03:59:38;;;;;;;6.25;4.35;;;11.30;99.90;;;;;;4853380;29;20124;-76
2022/07/28 04:02:04;;;;;;;5.80;4.03;;;11.30;99.90;;;;;;4809418;29;20049;-76
2022/07/28 04:04:29;;;;;;;7.78;4.80;;;11.30;99.90;;;;;;4848798;29;20125;-77
2022/07/28 04:06:55;;;;;;;7.55;4.88;;;11.30;99.90;;;;;;4828849;29;20102;-76
2022/07/28 04:09:21;;;;;;;7.85;5.38;;;11.30;99.90;;;;;;4824527;29;20041;-76
2022/07/28 04:11:47;;;;;;;8.82;5.45;;;11.20;99.90;;;;;;4829137;29;20042;-76
2022/07/28 04:14:13;;;;;;;8.77;6.00;;;11.20;99.90;;;;;;4856553;29;20065;-76
2022/07/28 04:16:39;;;;;;;8.48;5.97;;;11.20;99.90;;;;;;4840568;29;20045;-76
2022/07/28 04:19:05;;;;;;;8.70;5.75;;;11.20;99.90;;;;;;4827125;29;20049;-76
2022/07/28 04:21:31;;;;;;;8.57;6.15;;;11.20;99.90;;;;;;4854603;29;20065;-76
2022/07/28 04:23:56;;;;;;;11.50;6.03;;;11.20;99.90;;;;;;4857112;29;20046;-76
2022/07/28 04:26:22;;;;;;;8.48;5.95;;;11.10;99.90;;;;;;4824660;29;20042;-76
2022/07/28 04:28:48;;;;;;;7.85;5.80;;;11.10;99.90;;;;;;4842692;29;20128;-77
2022/07/28 04:31:13;;;;;;;10.90;5.90;;;11.10;99.90;;;;;;4867832;29;20144;-77
2022/07/28 04:33:39;;;;;;;12.20;6.55;;;11.10;99.90;;;;;;4834317;29;20197;-76
2022/07/28 04:36:05;;;;;;;10.77;6.68;;;11.20;99.90;;;;;;4855861;29;20045;-76
2022/07/28 04:38:31;;;;;;;9.05;6.57;;;11.20;99.90;;;;;;4853603;29;20054;-76
2022/07/28 04:40:56;;;;;;;9.68;6.40;;;11.20;99.90;;;;;;4854571;29;20041;-76
2022/07/28 04:43:22;;;;;;;7.30;5.60;;;11.10;99.90;;;;;;4842683;29;20069;-77
2022/07/28 04:45:49;;;;;;;9.73;5.95;;;11.20;99.90;;;;;;4859182;29;20097;-77
2022/07/28 04:48:16;;;;;;;7.47;5.10;;;11.20;99.90;;;;;;4852528;29;20541;-77
2022/07/28 04:50:44;;;;;;;6.45;4.85;;;11.20;99.90;;;;;;4843291;29;20077;-76
2022/07/28 04:53:10;;;;;;;9.57;5.00;;;11.20;99.90;;;;;;4856996;29;20098;-76
2022/07/28 04:55:37;;;;;;;7.35;4.70;;;11.20;99.90;;;;;;4843268;29;20128;-77
2022/07/28 04:58:04;;;;;;;7.78;4.88;;;11.30;99.90;;;;;;4844491;29;20387;-77
2022/07/28 05:00:30;;;;;;;7.20;4.97;;;11.40;99.90;;;;;;4810949;29;20046;-77
2022/07/28 05:02:57;;;;;;;8.48;3.70;;;11.40;99.90;;;;;;4842335;29;20048;-76
2022/07/28 05:05:23;;;;;;;8.10;4.20;;;11.40;99.90;;;;;;4830033;29;20046;-77
2022/07/28 05:07:49;;;;;;;7.22;4.10;;;11.40;99.90;;;;;;4827222;29;20052;-76
2022/07/28 05:10:15;;;;;;;4.78;3.50;;;11.50;99.90;;;;;;4842922;29;20038;-77
2022/07/28 05:12:41;;;;;;;4.70;3.30;;;11.50;99.90;;;;;;4856430;29;20402;-77
2022/07/28 05:15:08;;;;;;;4.43;3.35;;;11.60;99.90;;;;;;4840936;29;20124;-77
2022/07/28 05:17:35;;;;;;;6.47;3.40;;;11.70;99.90;;;;;;4839600;29;20101;-77
2022/07/28 05:20:02;;;;;;;5.10;3.15;;;11.80;99.90;;;;;;4831479;29;20045;-77
2022/07/28 05:22:29;;;;;;;3.50;2.55;;;11.90;99.90;;;;;;4847316;29;20041;-77
2022/07/28 05:24:55;;;;;;;4.50;2.47;;;12.00;99.90;;;;;;4829108;29;20056;-77
2022/07/28 05:27:21;;;;;;;4.53;2.70;;;12.10;99.90;;;;;;4842556;29;20541;-78
2022/07/28 05:29:46;;;;;;;9.60;3.00;;;12.30;99.90;;;;;;4859800;29;20049;-76
2022/07/28 05:32:12;;;;;;;7.97;4.10;;;12.40;99.90;;;;;;4841477;29;20138;-77
2022/07/28 05:34:39;;;;;;;6.18;3.38;;;12.40;99.90;;;;;;4826512;29;20045;-77
2022/07/28 05:37:04;;;;;;;5.38;2.83;;;12.50;99.90;;;;;;4853267;29;20156;-77
2022/07/28 05:39:33;;;;;;;7.85;2.80;;;12.70;99.90;;;;;;4859858;29;20124;-77
2022/07/28 05:41:59;;;;;;;4.75;2.60;;;12.80;99.90;;;;;;4851284;29;20104;-76
2022/07/28 05:44:25;;;;;;;7.82;2.60;;;12.90;99.90;;;;;;4857097;29;20053;-76
2022/07/28 05:46:50;;;;;;;5.30;2.40;;;12.90;99.90;;;;;;4846146;29;20041;-77
2022/07/28 05:49:16;;;;;;;4.90;2.30;;;13.00;99.90;;;;;;4846197;29;20379;-76
2022/07/28 05:51:42;;;;;;;5.30;2.00;;;13.10;99.90;;;;;;4846098;29;20049;-77
2022/07/28 05:54:08;;;;;;;5.63;2.65;;;13.20;99.90;;;;;;4835332;29;20042;-77
2022/07/28 05:56:33;;;;;;;6.95;2.53;;;13.20;99.90;;;;;;4845479;29;20098;-77
2022/07/28 05:58:59;;;;;;;3.33;1.80;;;13.30;99.90;;;;;;4829946;29;20113;-76
2022/07/28 06:01:25;;;;;;;5.82;1.92;;;13.40;99.90;;;;;;4829331;29;20068;-76
2022/07/28 06:03:51;;;;;;;3.85;2.20;;;13.50;99.90;;;;;;4828839;29;20069;-76
2022/07/28 06:06:18;;;;;;;6.68;2.00;;;13.50;99.90;;;;;;4843051;29;20386;-76
2022/07/28 06:08:46;;;;;;;6.90;2.30;;;13.60;99.90;;;;;;4829626;29;20053;-76
2022/07/28 06:11:12;;;;;;;4.00;2.20;;;13.60;99.90;;;;;;4844121;29;20041;-76
2022/07/28 06:13:38;;;;;;;4.07;1.90;;;13.70;99.90;;;;;;4856195;29;20439;-76
2022/07/28 06:16:06;;;;;;;3.28;2.15;;;13.70;99.90;;;;;;4854937;29;20052;-76
2022/07/28 06:18:32;;;;;;;6.57;1.90;;;13.80;99.90;;;;;;4857152;29;20096;-76
2022/07/28 06:20:58;;;;;;;6.93;2.10;;;13.80;99.90;;;;;;4844642;29;20045;-76
2022/07/28 06:23:23;;;;;;;6.03;2.20;;;13.80;99.90;;;;;;4845123;29;20041;-77
2022/07/28 06:25:50;;;;;;;3.45;1.95;;;13.90;99.90;;;;;;4827982;29;20041;-76
2022/07/28 06:28:17;;;;;;;4.80;1.90;;;13.90;99.90;;;;;;4829835;29;20047;-77
2022/07/28 06:30:44;;;;;;;4.78;2.17;;;14.00;99.90;;;;;;4835212;29;20192;-76
2022/07/28 06:33:10;;;;;;;4.38;2.45;;;14.00;99.90;;;;;;4838993;29;20053;-76
2022/07/28 06:35:36;;;;;;;3.40;2.00;;;14.00;99.90;;;;;;4845388;29;20383;-76
2022/07/28 06:38:01;;;;;;;4.18;2.10;;;14.10;99.90;;;;;;4843975;29;20057;-75
2022/07/28 06:40:27;;;;;;;4.57;2.00;;;14.10;99.90;;;;;;4853725;29;20049;-76
2022/07/28 06:42:53;;;;;;;6.35;1.92;;;14.20;99.90;;;;;;4845195;29;20052;-75
2022/07/28 06:45:19;;;;;;;8.57;2.10;;;14.30;99.90;;;;;;4854711;29;20053;-75
2022/07/28 06:47:45;;;;;;;5.30;2.13;;;14.40;99.90;;;;;;4856818;29;20053;-76
2022/07/28 06:50:11;;;;;;;6.28;2.00;;;14.50;99.90;;;;;;4855768;29;20105;-76
2022/07/28 06:52:37;;;;;;;4.57;2.20;;;14.60;99.90;;;;;;4842314;29;20082;-76
2022/07/28 06:55:06;;;;;;;4.88;1.92;;;14.70;99.90;;;;;;4845003;29;20049;-76
2022/07/28 06:57:32;;;;;;;3.85;2.03;;;14.80;99.90;;;;;;4857909;29;20093;-75
2022/07/28 06:59:58;;;;;;;4.10;1.73;;;14.90;99.90;;;;;;4843359;29;20072;-76
2022/07/28 07:02:24;;;;;;;6.82;2.33;;;15.00;99.90;;;;;;4849862;29;20507;-76
2022/07/28 07:04:53;;;;;;;8.27;2.25;;;15.20;99.90;;;;;;4866303;29;20086;-76
2022/07/28 07:07:18;;;;;;;5.03;2.03;;;15.50;99.90;;;;;;4853032;29;20050;-76
2022/07/28 07:09:44;;;;;;;5.70;1.80;;;15.70;99.90;;;;;;4860717;29;20046;-75
2022/07/28 07:12:10;;;;;;;4.35;1.95;;;15.90;99.90;;;;;;4852503;29;20135;-76
2022/07/28 07:14:36;;;;;;;4.63;2.03;;;15.90;99.90;;;;;;4858651;29;20125;-76
2022/07/28 07:17:01;;;;;;;5.35;1.83;;;15.90;99.90;;;;;;4850348;29;20042;-76
2022/07/28 07:19:27;;;;;;;8.10;2.00;;;16.30;99.90;;;;;;4860863;29;20041;-75
2022/07/28 07:21:54;;;;;;;5.95;1.75;;;16.70;99.90;;;;;;4848672;29;20093;-76
2022/07/28 07:24:20;;;;;;;4.78;1.90;;;17.10;99.90;;;;;;4857498;29;20403;-77
2022/07/28 07:26:46;;;;;;;6.47;1.50;;;17.40;99.90;;;;;;4851282;29;20052;-76
2022/07/28 07:29:11;;;;;;;4.75;1.45;;;17.70;99.90;;;;;;4828854;29;20076;-76
2022/07/28 07:31:38;;;;;;;4.40;1.30;;;17.90;99.90;;;;;;4857114;29;20076;-76
2022/07/28 07:34:05;;;;;;;6.05;1.70;;;18.20;99.90;;;;;;4836076;29;20041;-77
2022/07/28 07:36:31;;;;;;;3.35;1.65;;;18.30;99.90;;;;;;4844233;29;20081;-76
2022/07/28 07:39:00;;;;;;;5.32;2.38;;;18.50;99.90;;;;;;4862353;29;20486;-76
2022/07/28 07:41:26;;;;;;;4.28;1.50;;;18.70;99.90;;;;;;4852670;29;20049;-76
2022/07/28 07:43:51;;;;;;;3.75;1.60;;;18.90;99.90;;;;;;4842622;29;20041;-76
2022/07/28 07:46:17;;;;;;;2.53;1.13;;;19.10;99.90;;;;;;4855585;29;20049;-76
2022/07/28 07:48:43;;;;;;;3.97;1.10;;;19.20;99.90;;;;;;4823092;29;20456;-76
2022/07/28 07:51:09;;;;;;;5.60;1.33;;;19.30;99.90;;;;;;4857692;29;20053;-76
2022/07/28 07:53:35;;;;;;;5.90;1.40;;;19.30;99.90;;;;;;4858880;29;20092;-76
2022/07/28 07:56:00;;;;;;;6.10;1.10;;;19.30;99.90;;;;;;4843854;29;20072;-77
2022/07/28 07:58:26;;;;;;;6.00;1.45;;;19.40;99.90;;;;;;4829168;29;20048;-76
2022/07/28 08:00:52;;;;;;;3.80;1.30;;;19.60;99.90;;;;;;4842646;29;20480;-77
2022/07/28 08:03:18;;;;;;;3.92;0.90;;;19.50;99.90;;;;;;4842464;29;20045;-76
2022/07/28 08:05:44;;;;;;;2.08;0.80;;;19.60;99.90;;;;;;4840946;29;20099;-76
2022/07/28 08:08:10;;;;;;;6.15;1.00;;;19.70;99.70;;;;;;4844125;29;20582;-78
2022/07/28 08:10:38;;;;;;;5.20;1.17;;;19.70;98.80;;;;;;4843142;29;20045;-77
2022/07/28 08:13:05;;;;;;;7.50;1.20;;;19.80;98.50;;;;;;4859199;29;20157;-77
2022/07/28 08:15:31;;;;;;;3.90;1.02;;;19.80;98.10;;;;;;4860404;29;20386;-77
2022/07/28 08:17:57;;;;;;;2.70;0.90;;;19.80;98.20;;;;;;4846757;29;20063;-77
2022/07/28 08:20:23;;;;;;;2.42;0.95;;;19.90;97.70;;;;;;4842515;29;20469;-77
2022/07/28 08:22:54;;;;;;;5.45;1.13;;;20.00;97.50;;;;;;4845618;29;20049;-76
2022/07/28 08:25:21;;;;;;;2.03;0.82;;;20.00;96.90;;;;;;4837753;29;20049;-76
2022/07/28 08:27:47;;;;;;;4.85;0.93;;;20.00;96.80;;;;;;4858022;29;20405;-77
2022/07/28 08:30:14;;;;;;;1.83;0.90;;;20.10;96.20;;;;;;4860239;29;20053;-76
2022/07/28 08:32:41;;;;;;;1.13;0.65;;;20.20;96.00;;;;;;4843137;29;20049;-77
2022/07/28 08:35:07;;;;;;;3.55;1.23;;;20.10;95.80;;;;;;4832407;29;20057;-77
2022/07/28 08:37:34;;;;;;;1.80;0.80;;;20.20;95.30;;;;;;4840255;29;20061;-76
2022/07/28 08:39:59;;;;;;;2.17;0.90;;;20.30;95.40;;;;;;4830322;29;20402;-76
2022/07/28 08:42:37;;;;;;;2.58;0.90;;;20.40;95.20;;;;;;4844991;29;20038;-77
2022/07/28 08:45:06;;;;;;;1.58;0.80;;;20.50;94.40;;;;;;4843901;29;20053;-77
2022/07/28 08:47:34;;;;;;;3.03;1.00;;;20.60;93.20;;;;;;4831954;29;20049;-77
2022/07/28 08:50:00;;;;;;;2.97;1.10;;;20.70;92.90;;;;;;4850675;29;20150;-76
2022/07/28 08:52:32;;;;;;;2.35;1.00;;;20.70;93.10;;;;;;4844432;29;20072;-77
2022/07/28 08:55:03;;;;;;;2.17;0.82;;;20.70;92.10;;;;;;4832952;29;20053;-77
2022/07/28 08:57:58;;;;;;;1.88;0.90;;;20.70;92.50;;;;;;4850283;29;20046;-76
2022/07/28 09:00:25;;;;;;;1.67;0.70;;;20.70;92.40;;;;;;4863680;29;20140;-77
2022/07/28 09:02:51;;;;;;;5.30;1.00;;;20.70;92.50;;;;;;4827793;29;20060;-77
2022/07/28 09:05:20;;;;;;;2.83;0.80;;;20.80;92.20;;;;;;4861751;29;20038;-77
2022/07/28 09:07:51;;;;;;;4.03;1.00;;;20.80;92.00;;;;;;4839155;29;20105;-77
2022/07/28 09:10:17;;;;;;;1.92;0.80;;;20.80;90.50;;;;;;4861348;29;20037;-77
2022/07/28 09:12:43;;;;;;;2.08;0.70;;;20.60;90.30;;;;;;4846425;29;20061;-77
2022/07/28 09:15:12;;;;;;;2.20;0.90;;;20.50;91.10;;;;;;4828999;29;20041;-77
2022/07/28 09:17:38;;;;;;;2.63;1.00;;;20.50;91.20;;;;;;4857687;29;20049;-77
2022/07/28 09:20:05;;;;;;;2.15;1.05;;;20.70;91.10;;;;;;4845138;29;20049;-77
2022/07/28 09:22:57;;;;;;;3.60;1.13;;;20.70;90.80;;;;;;4861233;29;20037;-76
2022/07/28 09:25:23;;;;;;;1.83;0.93;;;20.70;90.40;;;;;;4852517;29;20073;-77
2022/07/28 09:27:50;;;;;;;4.13;0.80;;;20.60;91.00;;;;;;4831072;29;20849;-77
2022/07/28 09:30:29;;;;;;;4.63;1.20;;;20.50;91.00;;;;;;4826609;29;20053;-77
2022/07/28 09:33:13;;;;;;;2.55;1.02;;;20.70;91.50;;;;;;4843798;29;20057;-77
2022/07/28 09:35:47;;;;;;;3.70;0.90;;;20.90;90.50;;;;;;4839977;29;20094;-77
2022/07/28 09:38:13;;;;;;;2.55;1.10;;;21.00;90.40;;;;;;4845440;29;20136;-77
2022/07/28 09:40:40;;;;;;;1.80;1.00;;;21.10;90.10;;;;;;4845338;29;20200;-77
2022/07/28 09:43:07;;;;;;;3.30;1.13;;;21.20;90.50;;;;;;4828808;29;20046;-77
2022/07/28 09:45:33;;;;;;;3.25;1.02;;;21.30;90.50;;;;;;4837705;29;20400;-77
2022/07/28 09:48:10;;;;;;;1.92;0.88;;;21.30;88.60;;;;;;4845037;29;20541;-77
2022/07/28 09:50:37;;;;;;;2.53;0.80;;;21.10;87.70;;;;;;4840095;29;20384;-77
2022/07/28 09:53:22;;;;;;;1.98;0.70;;;20.80;89.00;;;;;;4856375;29;20516;-77
2022/07/28 09:56:00;;;;;;;1.83;0.80;;;20.70;88.40;;;;;;4838254;29;20403;-76
2022/07/28 09:58:26;;;;;;;1.77;0.80;;;20.50;89.80;;;;;;4844033;29;20309;-77
2022/07/28 10:01:22;;;;;;;1.65;0.90;;;20.40;89.60;;;;;;4838477;29;20057;-77
2022/07/28 10:03:51;;;;;;;2.05;1.15;;;20.30;86.70;;;;;;4827749;29;20461;-76
2022/07/28 10:06:24;;;;;;;2.47;0.93;;;20.30;89.00;;;;;;4837273;29;20049;-77
2022/07/28 10:08:51;;;;;;;1.77;0.88;;;20.40;88.20;;;;;;4852862;29;20049;-77
2022/07/28 10:11:19;;;;;;;3.58;0.90;;;20.50;89.00;;;;;;4838301;29;20065;-77
2022/07/28 10:14:03;;;;;;;6.72;1.17;;;20.50;88.80;;;;;;4832236;29;20114;-77
2022/07/28 10:16:52;;;;;;;1.52;0.70;;;20.70;88.80;;;;;;4840553;29;20111;-77
2022/07/28 10:19:18;;;;;;;3.30;0.98;;;20.70;85.70;;;;;;4850520;29;20142;-77
2022/07/28 10:21:45;;;;;;;3.22;1.00;;;20.60;88.30;;;;;;4852476;29;20541;-78
2022/07/28 10:24:21;;;;;;;2.60;0.90;;;20.60;87.80;;;;;;4853558;29;20038;-77
2022/07/28 10:26:48;;;;;;;2.67;0.80;;;20.60;88.00;;;;;;4852478;29;20093;-77
2022/07/28 10:29:19;;;;;;;2.13;0.85;;;20.60;88.00;;;;;;4825517;29;20046;-77
2022/07/28 10:31:47;;;;;;;1.85;0.98;;;20.70;86.80;;;;;;4847100;29;20057;-76
2022/07/28 10:34:21;;;;;;;1.83;0.90;;;20.70;87.90;;;;;;4858758;29;20045;-77
2022/07/28 10:36:49;;;;;;;2.25;0.80;;;20.70;86.90;;;;;;4858371;29;20058;-76
2022/07/28 10:39:19;;;;;;;2.90;0.90;;;20.60;86.90;;;;;;4868699;29;20061;-77
2022/07/28 10:41:45;;;;;;;4.30;0.88;;;20.60;87.00;;;;;;4857309;29;20049;-76
2022/07/28 10:44:17;;;;;;;3.55;1.10;;;20.60;86.90;;;;;;4844879;29;20038;-77
2022/07/28 10:46:43;;;;;;;2.85;0.80;;;20.70;86.00;;;;;;4859338;29;20060;-77
2022/07/28 10:49:10;;;;;;;1.95;1.00;;;20.70;85.00;;;;;;4853449;29;20068;-76
2022/07/28 10:51:39;;;;;;;4.03;1.00;;;20.70;86.00;;;;;;4859156;29;20054;-77
2022/07/28 10:54:14;;;;;;;3.03;0.90;;;20.80;86.00;;;;;;4855705;29;20038;-78
2022/07/28 10:56:47;;;;;;;5.50;1.20;;;20.80;86.40;;;;;;4852293;29;20045;-77
2022/07/28 10:59:22;;;;;;;5.00;1.00;;;20.90;85.20;;;;;;4842871;29;20065;-77
2022/07/28 11:01:48;;;;;;;4.03;1.10;;;20.80;84.80;;;;;;4843297;29;20541;-77
2022/07/28 11:04:39;;;;;;;4.68;1.00;;;20.90;86.00;;;;;;4844982;29;20178;-76
2022/07/28 11:07:10;;;;;;;1.90;0.90;;;20.90;86.70;;;;;;4855869;29;20046;-77
2022/07/28 11:09:36;;;;;;;2.50;1.17;;;20.90;87.00;;;;;;4838209;29;20080;-77
2022/07/28 11:12:01;;;;;;;1.70;1.00;;;21.00;85.40;;;;;;4844932;29;20104;-77
2022/07/28 11:14:35;;;;;;;2.72;0.90;;;21.00;84.20;;;;;;4811778;29;20042;-77
2022/07/28 11:17:04;;;;;;;2.92;0.98;;;21.00;84.50;;;;;;4857030;29;20124;-77
2022/07/28 11:19:49;;;;;;;3.42;1.20;;;20.90;83.70;;;;;;4875962;29;20053;-77
2022/07/28 11:22:18;;;;;;;3.85;0.70;;;20.90;83.90;;;;;;4850963;29;20084;-77
2022/07/28 11:24:56;;;;;;;1.20;0.80;;;20.90;84.30;;;;;;4860473;29;20436;-77
2022/07/28 11:27:40;;;;;;;2.50;1.10;;;21.00;84.20;;;;;;4857086;29;20509;-77
2022/07/28 11:30:30;;;;;;;2.92;0.93;;;21.10;83.00;;;;;;4855981;29;20097;-77
2022/07/28 11:32:57;;;;;;;2.63;1.00;;;21.10;84.10;;;;;;4846423;29;20049;-77
2022/07/28 11:35:50;;;;;;;2.13;0.82;;;21.20;84.20;;;;;;4857007;29;20077;-77
2022/07/28 11:38:16;;;;;;;2.03;0.82;;;21.30;83.40;;;;;;4831214;29;20050;-77
2022/07/28 11:40:50;;;;;;;2.28;0.90;;;21.10;82.20;;;;;;4829143;29;20497;-77
2022/07/28 11:43:22;;;;;;;2.42;0.90;;;21.10;83.20;;;;;;4845096;29;20041;-77
2022/07/28 11:45:48;;;;;;;2.65;0.90;;;21.20;83.30;;;;;;4844205;29;20072;-77
2022/07/28 11:48:22;;;;;;;2.72;1.20;;;21.20;82.90;;;;;;4844135;29;20087;-77
2022/07/28 11:51:03;;;;;;;4.75;0.95;;;21.20;83.00;;;;;;4854933;29;20097;-77
2022/07/28 11:53:38;;;;;;;3.40;1.00;;;21.30;83.30;;;;;;4841154;29;20049;-77
2022/07/28 11:56:07;;;;;;;1.92;0.88;;;21.40;83.70;;;;;;4853171;29;20057;-77
2022/07/28 11:58:33;;;;;;;2.88;0.90;;;21.50;82.90;;;;;;4858443;29;20049;-78
2022/07/28 12:01:19;;;;;;;2.28;1.00;;;21.60;81.60;;;;;;4858205;29;20141;-78
2022/07/28 12:03:48;;;;;;;3.20;1.00;;;21.60;81.60;;;;;;4827712;29;20083;-77
2022/07/28 12:06:14;;;;;;;2.53;0.80;;;21.60;81.00;;;;;;4839954;29;20490;-77
2022/07/28 12:08:52;;;;;;;3.55;0.80;;;21.70;81.80;;;;;;4829675;29;20056;-77
2022/07/28 12:11:18;;;;;;;2.92;0.90;;;21.70;80.90;;;;;;4854392;29;20181;-77
2022/07/28 12:13:45;;;;;;;3.33;0.90;;;21.80;81.40;;;;;;4830009;29;20136;-77
2022/07/28 12:16:12;;;;;;;4.25;1.10;;;21.90;80.40;;;;;;4841878;29;20339;-77
2022/07/28 12:18:38;;;;;;;1.88;1.02;;;22.00;79.30;;;;;;4828380;29;20064;-77
2022/07/28 12:21:04;;;;;;;2.50;0.90;;;22.10;79.80;;;;;;4833187;29;20048;-77
2022/07/28 12:23:32;;;;;;;2.20;1.00;;;22.20;78.80;;;;;;4839027;29;20046;-77
2022/07/28 12:26:00;;;;;;;2.22;0.90;;;22.20;78.80;;;;;;4851131;29;20125;-77
2022/07/28 12:28:28;;;;;;;2.05;1.05;;;22.40;79.30;;;;;;4839737;29;20050;-77
2022/07/28 12:30:54;;;;;;;2.88;1.00;;;22.40;78.00;;;;;;4850470;29;20058;-77
2022/07/28 12:33:24;;;;;;;3.33;0.88;;;22.50;77.10;;;;;;4857035;29;20054;-77
2022/07/28 12:35:56;;;;;;;2.70;0.90;;;22.50;76.90;;;;;;4835423;29;20080;-77
2022/07/28 12:38:23;;;;;;;4.25;1.00;;;22.60;77.60;;;;;;4853328;29;20143;-77
2022/07/28 12:40:49;;;;;;;3.47;1.10;;;22.80;77.30;;;;;;4843784;29;20050;-78
2022/07/28 12:43:25;;;;;;;3.67;1.08;;;22.90;78.20;;;;;;4858344;29;20060;-77
2022/07/28 12:45:51;;;;;;;3.05;0.98;;;22.90;75.70;;;;;;4859349;29;20045;-77
2022/07/28 12:48:20;;;;;;;2.97;0.80;;;22.90;76.30;;;;;;4845246;29;20042;-77
2022/07/28 12:50:47;;;;;;;3.60;0.98;;;22.80;75.80;;;;;;4840766;29;20128;-78
2022/07/28 12:53:14;;;;;;;4.60;1.00;;;22.50;75.70;;;;;;4843060;29;20102;-78
2022/07/28 12:55:44;;;;;;;3.53;0.98;;;22.40;76.00;;;;;;4840528;29;20466;-78